Time;durP1;ratioP1;P1;durP2;ratioP2;P2;SDS_P1;SDS_P2;PMS_P1;PMS_P2;Temp;Humidity;BMP_temperature;BMP_pressure;BME280_temperature;BME280_humidity;BME280_pressure;Samples;Min_cycle;Max_cycle;Signal;HPM_P1;HPM_P2
2022/11/30 00:01:13;;;;;;;14.33;6.70;;;;;;;2.26;100.00;101606.42;123743;1099;104158;-77
2022/11/30 00:03:45;;;;;;;13.70;6.97;;;;;;;2.27;100.00;101610.80;123566;1099;104221;-77
2022/11/30 00:06:21;;;;;;;16.30;7.50;;;;;;;2.28;100.00;101614.33;123798;1099;104677;-77
2022/11/30 00:08:54;;;;;;;12.20;6.00;;;;;;;2.27;99.72;101620.27;123935;1099;104281;-77
2022/11/30 00:11:28;;;;;;;15.43;7.27;;;;;;;2.27;100.00;101622.86;123953;1099;104223;-77
2022/11/30 00:13:58;;;;;;;;;;;;;;;2.25;100.00;101621.83;123953;1098;104421;-77
2022/11/30 00:16:29;;;;;;;11.27;5.40;;;;;;;2.25;100.00;101619.23;123897;1099;104338;-77
2022/11/30 00:19:00;;;;;;;12.57;5.90;;;;;;;2.25;100.00;101614.06;123853;1099;104208;-78
2022/11/30 00:21:31;;;;;;;11.95;5.00;;;;;;;2.25;99.81;101616.64;123663;1099;104316;-77
2022/11/30 00:24:04;;;;;;;13.47;5.90;;;;;;;2.23;100.00;101616.52;123704;1099;104475;-77
2022/11/30 00:26:35;;;;;;;11.33;5.73;;;;;;;2.24;100.00;101620.00;123956;1099;104345;-77
2022/11/30 00:29:08;;;;;;;13.30;6.43;;;;;;;2.24;100.00;101618.30;123785;1102;104264;-77
2022/11/30 00:31:39;;;;;;;14.33;7.30;;;;;;;2.23;100.00;101612.99;123921;1099;104269;-77
2022/11/30 00:34:10;;;;;;;16.05;7.50;;;;;;;2.25;100.00;101614.06;123647;1099;104325;-78
2022/11/30 00:36:41;;;;;;;12.00;6.13;;;;;;;2.25;100.00;101612.36;123736;1099;104416;-78
2022/11/30 00:39:12;;;;;;;13.97;6.70;;;;;;;2.26;100.00;101606.42;123620;1099;104258;-77
2022/11/30 00:41:43;;;;;;;15.40;6.67;;;;;;;2.27;100.00;101615.09;123603;1099;104319;-78
2022/11/30 00:44:14;;;;;;;14.67;6.77;;;;;;;2.25;100.00;101607.19;123769;1099;104227;-77
2022/11/30 00:46:46;;;;;;;15.60;6.75;;;;;;;2.24;99.93;101607.05;123843;1099;104249;-78
2022/11/30 00:49:17;;;;;;;15.73;7.00;;;;;;;2.22;100.00;101600.84;123822;1099;104409;-77
2022/11/30 00:51:48;;;;;;;13.67;5.93;;;;;;;2.19;99.76;101598.88;123792;1099;104277;-78
2022/11/30 00:54:19;;;;;;;13.03;6.47;;;;;;;2.18;100.00;101598.75;124068;1099;104759;-77
2022/11/30 00:56:50;;;;;;;13.17;5.73;;;;;;;2.16;100.00;101602.10;123581;1099;104354;-77
2022/11/30 00:59:21;;;;;;;16.10;6.70;;;;;;;2.15;99.50;101597.72;123517;1099;104332;-78
2022/11/30 01:01:54;;;;;;;18.60;8.10;;;;;;;2.14;100.00;101592.41;123548;1099;104168;-79
2022/11/30 01:04:26;;;;;;;16.37;7.57;;;;;;;2.12;99.98;101601.70;123520;1099;104252;-77
2022/11/30 01:06:57;;;;;;;14.93;7.30;;;;;;;2.14;100.00;101592.41;123838;1099;104252;-77
2022/11/30 01:09:28;;;;;;;15.50;7.70;;;;;;;2.18;100.00;101601.34;123869;1099;104437;-78
2022/11/30 01:11:59;;;;;;;17.47;8.07;;;;;;;2.21;100.00;101596.42;123814;1099;104175;-78
2022/11/30 01:14:31;;;;;;;15.47;7.07;;;;;;;2.18;100.00;101590.98;123871;1098;104386;-77
2022/11/30 01:17:02;;;;;;;16.43;7.33;;;;;;;2.17;99.64;101587.49;123559;1099;104246;-78
2022/11/30 01:19:33;;;;;;;14.27;6.10;;;;;;;2.13;98.73;101586.30;123798;1099;104380;-76
2022/11/30 01:22:04;;;;;;;15.93;7.23;;;;;;;2.13;99.86;101581.12;123867;1099;104171;-78
2022/11/30 01:24:35;;;;;;;15.87;6.80;;;;;;;2.12;99.20;101587.09;123509;1099;104261;-78
2022/11/30 01:27:06;;;;;;;16.60;7.53;;;;;;;2.10;99.03;101578.30;123726;1099;104402;-77
2022/11/30 01:29:37;;;;;;;16.17;7.50;;;;;;;2.11;99.16;101572.32;123856;1099;104280;-78
2022/11/30 01:32:09;;;;;;;16.13;7.60;;;;;;;2.14;99.40;101574.28;123787;1099;104665;-78
2022/11/30 01:34:40;;;;;;;17.30;7.80;;;;;;;2.15;99.37;101564.05;123820;1099;104322;-78
2022/11/30 01:37:12;;;;;;;17.90;8.00;;;;;;;2.16;99.08;101565.84;123712;1098;104271;-77
2022/11/30 01:39:43;;;;;;;15.60;7.10;;;;;;;2.18;99.60;101565.98;123556;1099;104226;-77
2022/11/30 01:42:19;;;;;;;16.37;7.70;;;;;;;2.18;99.50;101558.20;123613;1099;104276;-77
2022/11/30 01:44:58;;;;;;;17.67;8.37;;;;;;;2.15;99.65;101561.46;123809;1099;104245;-78
2022/11/30 01:47:33;;;;;;;18.97;8.60;;;;;;;2.18;99.26;101565.08;123774;1099;104296;-77
2022/11/30 01:50:09;;;;;;;18.10;8.63;;;;;;;2.19;99.80;101569.50;124008;1099;104293;-77
2022/11/30 01:52:43;;;;;;;20.73;9.27;;;;;;;2.20;99.34;101563.52;123898;1099;104313;-77
2022/11/30 01:55:20;;;;;;;18.50;8.67;;;;;;;2.21;100.00;101565.34;123809;1099;104318;-78
2022/11/30 01:57:56;;;;;;;19.37;8.93;;;;;;;2.21;99.32;101558.47;123890;1099;105598;-78
2022/11/30 02:00:27;;;;;;;18.63;8.90;;;;;;;2.25;99.91;101560.56;123906;1099;104328;-77
2022/11/30 02:03:03;;;;;;;19.00;8.80;;;;;;;2.24;99.33;101557.84;123598;1102;104318;-77
2022/11/30 02:05:37;;;;;;;19.40;8.83;;;;;;;2.23;99.77;101563.78;123791;1099;104355;-77
2022/11/30 02:08:10;;;;;;;19.00;9.20;;;;;;;2.23;99.67;101561.20;123937;1099;104204;-77
2022/11/30 02:10:44;;;;;;;18.93;8.57;;;;;;;2.21;98.86;101567.94;123828;1099;104278;-79
2022/11/30 02:13:21;;;;;;;;;;;;;;;2.18;99.04;101571.16;123921;1099;104434;-77
2022/11/30 02:15:58;;;;;;;20.70;9.33;;;;;;;2.15;99.21;101573.48;123807;1099;104360;-77
2022/11/30 02:18:38;;;;;;;20.80;9.20;;;;;;;2.15;99.54;101576.07;123679;1099;104310;-77
2022/11/30 02:21:14;;;;;;;20.20;9.97;;;;;;;2.13;99.21;101585.40;123598;1099;104267;-77
2022/11/30 02:24:02;;;;;;;22.65;10.20;;;;;;;2.11;99.30;101587.86;123612;1099;104323;-77
2022/11/30 02:26:54;;;;;;;22.90;10.97;;;;;;;2.13;99.77;101593.17;123710;1099;104265;-78
2022/11/30 02:29:28;;;;;;;21.00;10.03;;;;;;;2.13;99.27;101587.98;123736;1099;104255;-77
2022/11/30 02:32:06;;;;;;;21.50;10.30;;;;;;;2.10;99.44;101586.06;123807;1098;104224;-78
2022/11/30 02:34:40;;;;;;;22.83;11.00;;;;;;;2.05;98.95;101587.32;123774;1099;104328;-77
2022/11/30 02:37:14;;;;;;;22.67;11.20;;;;;;;2.04;99.74;101589.78;123815;1099;104317;-77
2022/11/30 02:39:45;;;;;;;23.70;11.20;;;;;;;2.03;99.95;101580.22;123795;1102;109379;-77
2022/11/30 02:42:17;;;;;;;24.50;12.40;;;;;;;2.03;99.89;101583.70;123636;1102;104412;-77
2022/11/30 02:44:52;;;;;;;25.15;12.05;;;;;;;2.04;99.98;101590.70;123608;1099;104283;-78
2022/11/30 02:47:29;;;;;;;24.87;11.77;;;;;;;2.03;100.00;101594.06;123583;1099;104868;-77
2022/11/30 02:50:07;;;;;;;24.20;12.23;;;;;;;2.04;100.00;101595.88;123686;1099;104262;-77
2022/11/30 02:52:39;;;;;;;24.25;11.85;;;;;;;2.07;100.00;101595.22;123785;1099;104255;-77
2022/11/30 02:55:14;;;;;;;23.80;11.97;;;;;;;2.07;100.00;101590.97;123740;1099;104325;-77
2022/11/30 02:57:48;;;;;;;27.90;13.13;;;;;;;2.10;100.00;101603.26;123885;1099;104321;-76
2022/11/30 03:00:21;;;;;;;23.90;11.90;;;;;;;2.12;100.00;101602.63;123661;1099;104299;-77
2022/11/30 03:02:52;;;;;;;27.57;12.77;;;;;;;2.12;100.00;101607.81;123856;1099;104258;-77
2022/11/30 03:05:23;;;;;;;22.33;11.40;;;;;;;2.14;100.00;101614.02;123525;1099;104274;-77
2022/11/30 03:07:54;;;;;;;21.87;11.03;;;;;;;2.15;100.00;101607.14;123663;1099;104302;-77
2022/11/30 03:10:26;;;;;;;21.63;10.93;;;;;;;2.13;100.00;101606.12;123511;1099;118595;-77
2022/11/30 03:13:00;;;;;;;21.33;10.97;;;;;;;2.10;100.00;101609.37;123567;1099;104283;-77
2022/11/30 03:15:31;;;;;;;19.83;9.57;;;;;;;2.09;100.00;101604.95;123669;1099;104236;-77
2022/11/30 03:18:06;;;;;;;23.35;11.70;;;;;;;2.07;100.00;101600.40;123526;1099;104401;-76
2022/11/30 03:20:40;;;;;;;18.87;9.17;;;;;;;2.06;100.00;101608.97;123958;1098;104178;-77
2022/11/30 03:23:09;;;;;;;;;;;;;;;2.03;100.00;101608.70;123865;1099;104437;-78
2022/11/30 03:25:40;;;;;;;23.87;9.73;;;;;;;2.01;100.00;101607.63;123828;1099;104361;-77
2022/11/30 03:28:12;;;;;;;20.20;9.90;;;;;;;2.00;100.00;101608.42;123716;1099;104272;-76
2022/11/30 03:30:48;;;;;;;25.13;11.57;;;;;;;1.98;100.00;101608.30;123704;1099;104357;-77
2022/11/30 03:33:19;;;;;;;22.13;11.70;;;;;;;1.95;100.00;101601.16;123893;1099;104271;-77
2022/11/30 03:35:57;;;;;;;23.20;10.97;;;;;;;1.95;100.00;101608.92;123823;1099;104354;-77
2022/11/30 03:38:29;;;;;;;25.10;12.65;;;;;;;1.94;100.00;101601.91;123848;1099;104278;-78
2022/11/30 03:41:06;;;;;;;25.53;11.83;;;;;;;1.93;100.00;101600.13;124091;1099;104351;-77
2022/11/30 03:43:37;;;;;;;26.20;12.83;;;;;;;1.87;100.00;101596.06;123842;1098;104232;-78
2022/11/30 03:46:08;;;;;;;22.87;11.67;;;;;;;1.85;100.00;101597.62;123892;1099;104245;-78
2022/11/30 03:48:41;;;;;;;27.57;13.23;;;;;;;1.78;100.00;101597.08;123898;1099;104400;-79
2022/11/30 03:51:13;;;;;;;26.37;13.57;;;;;;;1.78;100.00;101591.00;123774;1099;104319;-79
2022/11/30 03:53:44;;;;;;;27.83;14.20;;;;;;;1.74;100.00;101592.39;123751;1099;104226;-78
2022/11/30 03:56:15;;;;;;;29.27;14.30;;;;;;;1.74;100.00;101587.21;123690;1097;104262;-78
2022/11/30 03:58:46;;;;;;;30.80;15.53;;;;;;;1.72;100.00;101588.77;123898;1099;104188;-77
2022/11/30 04:01:22;;;;;;;26.30;13.43;;;;;;;1.69;100.00;101580.73;123816;1099;104188;-78
2022/11/30 04:03:54;;;;;;;30.05;14.85;;;;;;;1.69;100.00;101587.59;123596;1099;104362;-77
2022/11/30 04:06:25;;;;;;;26.07;12.60;;;;;;;1.71;100.00;101597.29;123500;1099;104363;-78
2022/11/30 04:08:56;;;;;;;27.80;13.70;;;;;;;1.70;100.00;101591.98;123711;1099;104316;-77
2022/11/30 04:11:27;;;;;;;27.43;13.90;;;;;;;1.69;100.00;101596.26;123753;1098;104277;-77
2022/11/30 04:13:58;;;;;;;30.90;14.47;;;;;;;1.66;100.00;101595.09;123850;1099;104406;-78
2022/11/30 04:16:29;;;;;;;31.30;14.07;;;;;;;1.65;100.00;101593.27;123617;1099;104281;-78
2022/11/30 04:19:01;;;;;;;31.10;15.03;;;;;;;1.65;100.00;101599.34;123585;1099;104233;-77
2022/11/30 04:21:32;;;;;;;29.40;14.67;;;;;;;1.64;100.00;101601.78;123650;1099;104246;-77
2022/11/30 04:24:03;;;;;;;30.93;14.63;;;;;;;1.66;100.00;101595.98;123681;1099;104226;-77
2022/11/30 04:26:34;;;;;;;32.50;15.60;;;;;;;1.65;100.00;101599.34;123616;1099;104363;-78
2022/11/30 04:29:06;;;;;;;28.93;14.17;;;;;;;1.64;100.00;101599.20;123729;1099;104297;-76
2022/11/30 04:31:37;;;;;;;34.40;16.70;;;;;;;1.63;100.00;101616.41;123782;1099;104380;-77
2022/11/30 04:34:08;;;;;;;33.07;15.70;;;;;;;1.66;100.00;101614.09;123849;1099;104376;-77
2022/11/30 04:36:39;;;;;;;33.67;16.10;;;;;;;1.65;100.00;101614.86;123874;1098;104370;-76
2022/11/30 04:39:10;;;;;;;38.40;16.87;;;;;;;1.67;100.00;101615.92;123668;1099;104246;-76
2022/11/30 04:41:42;;;;;;;34.80;16.03;;;;;;;1.68;100.00;101609.06;123908;1099;104281;-77
2022/11/30 04:44:13;;;;;;;30.10;14.50;;;;;;;1.66;100.00;101620.97;123767;1099;104248;-77
2022/11/30 04:46:44;;;;;;;36.67;16.27;;;;;;;1.64;100.00;101613.06;123677;1099;104264;-78
2022/11/30 04:49:15;;;;;;;32.73;14.60;;;;;;;1.64;100.00;101623.41;123748;1099;104687;-76
2022/11/30 04:51:47;;;;;;;37.20;17.20;;;;;;;1.62;100.00;101619.76;123831;1099;104342;-76
2022/11/30 04:54:18;;;;;;;34.10;15.23;;;;;;;1.64;100.00;101619.89;123720;1099;104350;-77
2022/11/30 04:56:49;;;;;;;34.53;16.87;;;;;;;1.64;100.00;101617.31;123698;1099;104255;-76
2022/11/30 04:59:20;;;;;;;36.77;17.47;;;;;;;1.66;100.00;101618.38;123898;1099;104255;-77
2022/11/30 05:01:51;;;;;;;34.40;16.07;;;;;;;1.68;100.00;101617.72;123742;1099;104348;-78
2022/11/30 05:04:22;;;;;;;36.10;15.80;;;;;;;1.70;100.00;101618.78;123782;1099;104245;-77
2022/11/30 05:06:53;;;;;;;34.00;15.33;;;;;;;1.67;100.00;101618.52;123461;1099;104360;-77
2022/11/30 05:09:24;;;;;;;31.07;14.87;;;;;;;1.66;100.00;101610.61;123392;1099;104229;-77
2022/11/30 05:11:55;;;;;;;33.27;14.43;;;;;;;1.61;100.00;101613.69;123832;1099;104223;-78
2022/11/30 05:14:26;;;;;;;30.20;14.57;;;;;;;1.60;100.00;101613.55;123962;1099;104307;-77
2022/11/30 05:16:58;;;;;;;30.90;14.77;;;;;;;1.60;100.00;101611.86;124153;1099;104303;-79
2022/11/30 05:19:29;;;;;;;30.17;13.93;;;;;;;1.60;100.00;101610.96;123904;1099;104644;-78
2022/11/30 05:22:00;;;;;;;33.00;15.27;;;;;;;1.59;100.00;101610.06;123921;1099;104246;-79
2022/11/30 05:24:31;;;;;;;32.35;16.00;;;;;;;1.58;100.00;101605.66;123792;1102;104259;-78
2022/11/30 05:27:02;;;;;;;29.80;14.87;;;;;;;1.61;100.00;101610.20;124033;1099;104271;-78
2022/11/30 05:29:35;;;;;;;33.20;15.80;;;;;;;1.63;100.00;101616.41;123614;1099;104351;-79
2022/11/30 05:32:06;;;;;;;33.93;15.40;;;;;;;1.67;100.00;101615.00;124014;1099;104274;-78
2022/11/30 05:34:37;;;;;;;31.03;14.23;;;;;;;1.67;100.00;101623.69;124297;1099;104267;-78
2022/11/30 05:37:08;;;;;;;32.37;13.67;;;;;;;1.63;100.00;101626.77;123827;1099;104223;-78
2022/11/30 05:39:39;;;;;;;28.27;13.63;;;;;;;1.64;99.80;101622.48;124192;1099;104251;-75
2022/11/30 05:42:10;;;;;;;27.80;12.40;;;;;;;1.64;99.87;101631.17;123927;1099;104165;-79
2022/11/30 05:44:42;;;;;;;28.33;13.77;;;;;;;1.62;99.38;101630.11;123705;1099;104226;-79
2022/11/30 05:47:13;;;;;;;26.77;12.97;;;;;;;1.64;100.00;101630.24;124116;1099;104243;-78
2022/11/30 05:49:44;;;;;;;28.17;12.13;;;;;;;1.67;99.36;101641.80;123806;1099;104788;-78
2022/11/30 05:52:15;;;;;;;28.27;12.30;;;;;;;1.66;99.58;101637.39;124193;1099;104211;-78
2022/11/30 05:54:47;;;;;;;27.87;12.83;;;;;;;1.67;99.15;101648.63;124269;1098;104169;-76
2022/11/30 05:57:18;;;;;;;28.40;12.97;;;;;;;1.66;98.85;101646.84;124313;1099;104192;-78
2022/11/30 05:59:49;;;;;;;26.80;12.40;;;;;;;1.65;98.82;101650.19;124460;1099;104204;-78
2022/11/30 06:02:23;;;;;;;29.07;13.13;;;;;;;1.65;99.05;101643.32;124523;1099;104222;-76
2022/11/30 06:04:56;;;;;;;28.33;12.73;;;;;;;1.72;99.65;101650.87;124456;1099;104254;-77
2022/11/30 06:07:27;;;;;;;29.37;13.10;;;;;;;1.72;97.91;101658.64;124326;1098;104453;-76
2022/11/30 06:09:58;;;;;;;32.03;13.30;;;;;;;1.72;98.11;101657.73;124170;1099;104227;-76
2022/11/30 06:12:29;;;;;;;32.53;15.60;;;;;;;1.73;98.78;101664.71;124129;1099;104213;-79
2022/11/30 06:15:00;;;;;;;30.83;14.23;;;;;;;1.71;97.19;101671.44;124591;1099;102916;-75
2022/11/30 06:17:32;;;;;;;30.53;13.53;;;;;;;1.70;98.07;101670.55;124757;1099;104236;-79
2022/11/30 06:20:03;;;;;;;30.83;14.57;;;;;;;1.70;97.83;101674.78;124565;1099;104329;-79
2022/11/30 06:22:34;;;;;;;27.20;12.93;;;;;;;1.74;98.11;101677.79;124743;1099;104252;-75
2022/11/30 06:25:07;;;;;;;30.27;13.80;;;;;;;1.75;97.94;101678.72;124908;1099;104291;-75
2022/11/30 06:27:38;;;;;;;26.03;11.50;;;;;;;1.74;97.11;101682.97;124932;1099;104274;-75
2022/11/30 06:30:12;;;;;;;31.67;14.07;;;;;;;1.74;97.98;101682.97;125038;1099;104313;-78
2022/11/30 06:32:48;;;;;;;30.73;13.63;;;;;;;1.78;98.59;101689.34;126045;1099;104117;-76
2022/11/30 06:35:20;;;;;;;30.37;12.88;;;;;;;1.85;97.89;101688.20;126644;1098;102268;-75
2022/11/30 06:37:51;;;;;;;27.63;12.33;;;;;;;1.88;98.15;101689.38;126612;1098;102227;-76
2022/11/30 06:40:22;;;;;;;26.40;11.27;;;;;;;1.91;97.26;101701.70;125327;1099;104284;-77
2022/11/30 06:42:54;;;;;;;27.43;11.80;;;;;;;1.90;96.52;101700.80;125315;1099;102278;-77
2022/11/30 06:45:26;;;;;;;30.60;12.90;;;;;;;1.88;96.75;101694.55;125362;1099;104277;-77
2022/11/30 06:47:58;;;;;;;27.10;11.60;;;;;;;1.91;97.22;101694.83;125158;1099;103049;-75
2022/11/30 06:50:30;;;;;;;30.43;11.57;;;;;;;1.93;97.77;101700.14;125301;1099;104281;-76
2022/11/30 06:53:01;;;;;;;30.60;12.53;;;;;;;1.93;97.08;101703.66;125149;1099;104299;-80
2022/11/30 06:55:34;;;;;;;28.43;12.07;;;;;;;1.93;97.17;101711.44;125178;1099;104251;-75
2022/11/30 06:58:10;;;;;;;23.85;11.22;;;;;;;1.94;97.00;101702.88;125563;1099;102670;-76
2022/11/30 07:00:42;;;;;;;28.43;11.73;;;;;;;2.00;97.28;101697.34;125364;1099;104257;-75
2022/11/30 07:03:13;;;;;;;27.17;12.03;;;;;;;2.03;97.54;101692.44;126132;1099;102713;-77
2022/11/30 07:05:46;;;;;;;28.47;11.40;;;;;;;2.07;96.26;101693.61;125261;1099;102573;-76
2022/11/30 07:08:18;;;;;;;25.73;10.07;;;;;;;2.06;95.64;101692.72;125213;1099;104730;-76
2022/11/30 07:10:52;;;;;;;25.33;9.97;;;;;;;1.98;92.15;101691.13;124886;1099;104724;-77
2022/11/30 07:13:24;;;;;;;24.73;10.63;;;;;;;1.96;94.56;101690.06;125102;1099;104179;-76
2022/11/30 07:15:56;;;;;;;23.90;10.30;;;;;;;1.96;94.47;101701.35;125082;1099;104242;-76
2022/11/30 07:18:32;;;;;;;26.80;10.50;;;;;;;1.95;94.42;101699.52;125085;1099;104169;-78
2022/11/30 07:21:08;;;;;;;25.73;10.37;;;;;;;1.94;92.81;101696.80;125286;1099;102097;-77
2022/11/30 07:26:31;;;;;;;25.13;9.97;;;;;;;1.98;95.08;101693.72;125062;1099;104383;-77
2022/11/30 07:29:04;;;;;;;23.43;9.23;;;;;;;1.97;93.27;101695.38;125729;1099;104059;-79
2022/11/30 07:31:35;;;;;;;26.80;8.97;;;;;;;1.99;93.50;101705.88;125792;1099;102265;-77
2022/11/30 07:34:10;;;;;;;24.85;9.73;;;;;;;2.01;93.96;101694.00;117040;1099;10001534;-77
2022/11/30 07:36:43;;;;;;;24.18;10.38;;;;;;;2.04;93.43;101699.45;117499;1098;10001756;-78
2022/11/30 07:39:17;;;;;;;26.70;12.43;;;;;;;2.14;95.50;101694.30;126319;1098;102288;-77
2022/11/30 07:41:49;;;;;;;29.20;10.90;;;;;;;2.25;95.25;101694.34;126195;1099;103959;-78
2022/11/30 07:44:21;;;;;;;25.13;10.67;;;;;;;2.31;95.68;101700.06;125702;1099;104351;-78
2022/11/30 07:46:54;;;;;;;;;;;;;;;2.29;93.36;101701.59;125427;1098;104213;-77
2022/11/30 07:49:25;;;;;;;27.57;10.93;;;;;;;2.32;95.01;101699.27;125675;1099;104242;-76
2022/11/30 07:52:03;;;;;;;30.23;11.60;;;;;;;2.32;94.86;101691.50;125444;1099;104262;-76
2022/11/30 07:54:35;;;;;;;27.03;10.90;;;;;;;2.32;93.78;101699.27;125582;1099;102087;-76
2022/11/30 07:57:06;;;;;;;28.77;11.43;;;;;;;2.32;94.22;101696.68;125314;1099;104133;-76
2022/11/30 07:59:39;;;;;;;26.37;11.97;;;;;;;2.37;94.89;101691.91;125615;1099;102645;-77
2022/11/30 08:02:12;;;;;;;27.13;11.50;;;;;;;2.41;94.86;101691.41;125441;1099;102677;-74
2022/11/30 08:04:43;;;;;;;35.90;13.50;;;;;;;2.43;93.15;101683.01;125088;1099;104210;-76
2022/11/30 08:07:18;;;;;;;30.33;12.87;;;;;;;2.48;95.28;101684.30;125766;1099;104488;-75
2022/11/30 08:09:50;;;;;;;27.80;11.97;;;;;;;2.55;94.80;101690.02;125308;1099;104588;-76
2022/11/30 08:12:25;;;;;;;28.23;12.60;;;;;;;2.58;95.33;101691.19;125662;1099;103660;-76
2022/11/30 08:14:56;;;;;;;25.60;11.30;;;;;;;2.59;93.52;101702.48;125896;1099;104245;-77
2022/11/30 08:17:36;;;;;;;27.37;12.13;;;;;;;2.51;91.94;101702.71;125434;1099;102092;-76
2022/11/30 08:20:10;;;;;;;32.10;14.70;;;;;;;2.49;93.05;101699.09;125770;1099;102187;-75
2022/11/30 08:22:45;;;;;;;32.77;12.23;;;;;;;2.49;93.05;101688.73;125437;1099;102474;-77
2022/11/30 08:25:19;;;;;;;29.37;12.07;;;;;;;2.50;93.91;101685.34;125530;1099;104236;-77
2022/11/30 08:27:51;;;;;;;30.23;11.93;;;;;;;2.56;93.70;101674.61;125731;1099;104146;-77
2022/11/30 08:30:22;;;;;;;28.37;11.50;;;;;;;2.53;92.07;101678.63;124777;1099;102197;-75
2022/11/30 08:32:58;;;;;;;30.97;11.97;;;;;;;2.53;92.93;101678.63;125067;1098;102265;-75
2022/11/30 08:35:29;;;;;;;29.27;11.10;;;;;;;2.54;93.11;101677.83;124962;1099;102839;-75
2022/11/30 08:38:02;;;;;;;28.00;11.67;;;;;;;2.55;93.88;101674.48;124797;1099;104335;-77
2022/11/30 08:40:33;;;;;;;27.03;10.73;;;;;;;2.59;93.48;101676.57;125301;1099;102450;-76
2022/11/30 08:43:17;;;;;;;;;;;;;;;2.65;92.23;101671.88;125385;1099;102747;-76
2022/11/30 08:45:49;;;;;;;25.40;9.23;;;;;;;2.71;92.51;101682.78;125100;1099;104181;-75
2022/11/30 08:48:21;;;;;;;27.50;11.07;;;;;;;2.64;92.15;101676.17;125270;1099;104105;-76
2022/11/30 08:50:53;;;;;;;24.67;9.43;;;;;;;2.64;92.47;101667.50;124979;1099;104172;-76
2022/11/30 08:53:25;;;;;;;27.33;10.33;;;;;;;2.66;93.12;101665.94;124999;1099;104179;-77
2022/11/30 08:56:02;;;;;;;27.50;10.50;;;;;;;2.65;92.85;101674.47;125750;1099;102120;-75
2022/11/30 08:58:43;;;;;;;28.80;11.67;;;;;;;2.67;93.49;101678.13;125996;1099;101951;-75
2022/11/30 09:01:17;;;;;;;26.20;9.17;;;;;;;2.64;89.60;101672.68;125665;1099;102174;-75
2022/11/30 09:03:52;;;;;;;27.87;11.33;;;;;;;2.62;90.75;101669.95;125527;1099;102255;-77
2022/11/30 09:06:31;;;;;;;27.20;10.63;;;;;;;2.64;91.97;101662.31;125379;1098;102259;-75
2022/11/30 09:09:20;;;;;;;27.43;10.83;;;;;;;2.69;92.08;101669.69;125042;1099;104252;-75
2022/11/30 09:11:55;;;;;;;25.00;9.03;;;;;;;2.73;89.87;101681.25;125203;1099;102890;-75
2022/11/30 09:14:41;;;;;;;25.23;9.63;;;;;;;2.60;90.10;101660.22;125136;1099;104249;-76
2022/11/30 09:17:19;;;;;;;24.47;10.33;;;;;;;2.64;90.90;101664.91;125995;1099;101908;-75
2022/11/30 09:19:53;;;;;;;28.83;11.20;;;;;;;2.69;91.26;101673.97;126219;1099;101919;-78
2022/11/30 09:22:25;;;;;;;23.67;9.93;;;;;;;2.78;90.47;101669.58;126371;1099;101561;-74
2022/11/30 09:24:57;;;;;;;26.93;10.43;;;;;;;2.89;91.57;101662.72;126692;1099;102698;-76
2022/11/30 09:27:31;;;;;;;29.23;10.40;;;;;;;2.95;90.42;101660.65;126454;1098;102339;-75
2022/11/30 09:30:02;;;;;;;27.27;10.63;;;;;;;2.93;89.84;101663.87;126135;1099;102830;-77
2022/11/30 09:32:34;;;;;;;23.97;9.77;;;;;;;2.86;89.16;101667.64;126973;1098;101869;-76
2022/11/30 09:35:07;;;;;;;27.00;10.37;;;;;;;2.81;88.05;101669.84;126937;1098;102734;-75
2022/11/30 09:37:39;;;;;;;24.70;9.30;;;;;;;2.78;88.18;101653.13;126426;1099;102378;-76
2022/11/30 09:40:15;;;;;;;22.73;9.20;;;;;;;2.82;90.06;101656.12;126784;1098;102148;-78
2022/11/30 09:43:02;;;;;;;23.30;9.57;;;;;;;2.88;89.76;101661.83;126718;1099;103270;-76
2022/11/30 09:45:43;;;;;;;22.23;9.27;;;;;;;2.97;91.05;101658.19;126814;1098;101789;-75
2022/11/30 09:48:41;;;;;;;24.27;9.00;;;;;;;2.94;89.26;101660.52;126832;1098;101862;-76
2022/11/30 09:51:21;;;;;;;28.13;9.70;;;;;;;3.00;90.55;101666.23;126845;1099;102003;-77
2022/11/30 09:53:56;;;;;;;26.53;9.63;;;;;;;3.01;88.93;101663.77;126824;1099;102003;-76
2022/11/30 09:56:37;;;;;;;23.40;9.10;;;;;;;3.07;90.22;101663.39;127145;1098;101779;-76
2022/11/30 09:59:23;;;;;;;23.17;8.10;;;;;;;3.06;89.33;101664.16;127158;1098;101446;-74
2022/11/30 10:02:04;;;;;;;21.03;7.30;;;;;;;3.00;88.79;101666.23;126744;1098;102686;-77
2022/11/30 10:04:37;;;;;;;21.17;8.17;;;;;;;2.97;88.83;101671.16;126773;1098;102778;-75
2022/11/30 10:07:29;;;;;;;18.57;8.13;;;;;;;2.94;88.31;101666.61;126726;1099;102492;-76
2022/11/30 10:10:10;;;;;;;22.50;8.57;;;;;;;2.89;85.76;101675.69;126427;1098;102369;-73
2022/11/30 10:12:49;;;;;;;22.70;8.93;;;;;;;2.95;88.51;101671.02;126824;1099;102009;-76
2022/11/30 10:15:39;;;;;;;21.83;8.07;;;;;;;3.00;87.07;101668.82;126956;1098;102041;-76
2022/11/30 10:18:25;;;;;;;20.63;7.67;;;;;;;3.01;86.35;101675.84;126782;1098;103907;-76
2022/11/30 10:21:04;;;;;;;17.40;7.25;;;;;;;2.99;86.20;101673.11;126752;1098;101972;-77
2022/11/30 10:23:52;;;;;;;16.70;7.00;;;;;;;3.02;87.62;101673.38;126557;1098;102249;-76
2022/11/30 10:26:33;;;;;;;19.50;8.37;;;;;;;2.95;86.78;101673.61;126944;1098;102066;-79
2022/11/30 10:29:17;;;;;;;19.87;7.93;;;;;;;2.94;87.95;101676.97;126899;1098;102251;-77
2022/11/30 10:31:58;;;;;;;17.40;7.67;;;;;;;2.99;88.73;101675.70;126146;1099;102694;-77
2022/11/30 10:34:34;;;;;;;18.70;7.63;;;;;;;3.05;87.81;101677.89;126006;1099;102845;-78
2022/11/30 10:37:12;;;;;;;20.80;8.07;;;;;;;3.06;88.82;101675.42;126759;1098;103401;-75
2022/11/30 10:39:57;;;;;;;23.97;7.67;;;;;;;2.99;87.41;101667.92;126441;1099;102641;-77
2022/11/30 10:42:37;;;;;;;17.20;7.23;;;;;;;2.96;87.34;101672.84;126804;1099;102124;-78
2022/11/30 10:45:14;;;;;;;20.80;7.60;;;;;;;2.94;86.55;101682.16;126713;1099;102352;-75
2022/11/30 10:48:01;;;;;;;24.00;7.60;;;;;;;2.90;86.04;101676.58;126679;1099;102290;-75
2022/11/30 10:50:35;;;;;;;18.20;7.87;;;;;;;2.88;87.61;101677.37;126151;1099;102572;-76
2022/11/30 10:53:10;;;;;;;17.80;7.77;;;;;;;2.87;86.38;101664.29;126575;1099;102587;-75
2022/11/30 10:55:53;;;;;;;20.03;7.50;;;;;;;2.80;85.16;101665.42;126804;1099;101989;-77
2022/11/30 10:58:37;;;;;;;16.60;7.10;;;;;;;2.80;86.23;101659.34;126385;1099;101969;-78
2022/11/30 11:01:13;;;;;;;17.90;6.90;;;;;;;2.76;86.49;101668.55;126884;1098;101937;-77
2022/11/30 11:03:46;;;;;;;17.10;6.57;;;;;;;2.74;84.76;101664.00;126839;1099;102858;-75
2022/11/30 11:06:24;;;;;;;20.08;7.60;;;;;;;2.67;83.88;101667.77;126668;1099;102605;-74
2022/11/30 11:08:56;;;;;;;20.07;8.13;;;;;;;2.63;83.44;101673.45;126733;1099;102468;-74
2022/11/30 11:11:54;;;;;;;21.63;8.17;;;;;;;2.63;86.99;101664.02;126795;1099;102764;-74
2022/11/30 11:14:29;;;;;;;23.87;9.43;;;;;;;2.65;85.90;101659.86;126776;1099;102422;-73
2022/11/30 11:17:03;;;;;;;19.73;7.80;;;;;;;2.64;85.90;101659.72;126222;1099;102501;-73
2022/11/30 11:19:35;;;;;;;;;;;;;;;2.62;84.24;101662.18;126628;1099;102254;-73
2022/11/30 11:22:16;;;;;;;24.47;8.73;;;;;;;2.61;85.86;101665.54;126350;1099;101845;-74
2022/11/30 11:24:49;;;;;;;19.83;8.40;;;;;;;2.64;86.93;101662.31;126517;1099;102547;-74
2022/11/30 11:27:27;;;;;;;21.83;9.50;;;;;;;2.61;86.13;101655.17;125812;1100;101848;-74
2022/11/30 11:30:06;;;;;;;22.67;9.20;;;;;;;2.64;86.06;101659.72;125991;1099;101951;-72
2022/11/30 11:32:38;;;;;;;27.60;10.10;;;;;;;2.65;86.29;101654.67;126419;1099;102540;-74
2022/11/30 11:35:34;;;;;;;23.53;9.80;;;;;;;2.68;86.72;101656.59;125949;1099;102653;-73
2022/11/30 11:38:17;;;;;;;22.93;9.97;;;;;;;2.63;86.24;101669.19;125897;1099;102945;-73